createdAt,value
2018-06-25T00:01:21.684Z,16.47
2018-06-25T00:03:50.321Z,16.43
2018-06-25T00:06:19.099Z,16.43
2018-06-25T00:08:47.655Z,16.38
2018-06-25T00:11:16.199Z,16.37
2018-06-25T00:13:45.374Z,16.35
2018-06-25T00:16:14.352Z,16.34
2018-06-25T00:18:43.002Z,16.35
2018-06-25T00:21:11.621Z,16.35
2018-06-25T00:23:40.202Z,16.34
2018-06-25T00:26:08.797Z,16.32
2018-06-25T00:28:37.625Z,16.31
2018-06-25T00:31:06.571Z,16.30
2018-06-25T00:33:35.839Z,16.27
2018-06-25T00:36:04.375Z,16.26
2018-06-25T00:38:32.939Z,16.26
2018-06-25T00:41:01.500Z,16.23
2018-06-25T00:43:30.031Z,16.21
2018-06-25T00:45:58.624Z,16.20
2018-06-25T00:48:27.248Z,16.18
2018-06-25T00:50:55.852Z,16.17
2018-06-25T00:53:24.584Z,16.13
2018-06-25T00:55:53.282Z,16.10
2018-06-25T00:58:22.445Z,16.07
2018-06-25T01:00:51.750Z,16.05
2018-06-25T01:03:20.955Z,16.02
2018-06-25T01:05:49.665Z,16.02
2018-06-25T01:08:18.451Z,16.03
2018-06-25T01:10:47.720Z,16.00
2018-06-25T01:13:16.266Z,16.01
2018-06-25T01:15:45.094Z,16.00
2018-06-25T01:18:13.669Z,15.99
2018-06-25T01:20:42.540Z,15.98
2018-06-25T01:23:11.166Z,15.96
2018-06-25T01:25:39.700Z,15.93
2018-06-25T01:28:08.292Z,15.88
2018-06-25T01:30:37.160Z,15.86
2018-06-25T01:33:06.026Z,15.85
2018-06-25T01:35:34.670Z,15.85
2018-06-25T01:38:03.382Z,15.83
2018-06-25T01:40:32.690Z,15.80
2018-06-25T01:43:01.251Z,15.78
2018-06-25T01:45:29.927Z,15.74
2018-06-25T01:47:58.536Z,15.72
2018-06-25T01:50:27.569Z,15.72
2018-06-25T01:52:56.351Z,15.71
2018-06-25T01:55:25.038Z,15.74
2018-06-25T01:57:53.731Z,15.74
2018-06-25T02:00:22.351Z,15.74
2018-06-25T02:02:51.657Z,15.73
2018-06-25T02:05:20.704Z,15.70
2018-06-25T02:07:49.387Z,15.63
2018-06-25T02:10:18.772Z,15.64
2018-06-25T02:12:47.495Z,15.61
2018-06-25T02:15:16.416Z,15.56
2018-06-25T02:17:45.838Z,15.54
2018-06-25T02:20:14.547Z,15.53
2018-06-25T02:22:43.387Z,15.54
2018-06-25T02:25:13.077Z,15.54
2018-06-25T02:27:41.727Z,15.55
2018-06-25T02:30:11.092Z,15.54
2018-06-25T02:32:41.369Z,15.54
2018-06-25T02:35:09.983Z,15.55
2018-06-25T02:37:38.696Z,15.51
2018-06-25T02:40:07.916Z,15.51
2018-06-25T02:42:36.828Z,15.51
2018-06-25T02:45:06.513Z,15.51
2018-06-25T02:47:35.162Z,15.50
2018-06-25T02:50:03.968Z,15.51
2018-06-25T02:52:33.109Z,15.50
2018-06-25T02:55:02.206Z,15.50
2018-06-25T02:57:30.850Z,15.50
2018-06-25T03:00:00.369Z,15.48
2018-06-25T03:02:29.050Z,15.44
2018-06-25T03:04:58.168Z,15.40
2018-06-25T03:07:26.981Z,15.36
2018-06-25T03:09:55.592Z,15.31
2018-06-25T03:12:24.307Z,15.29
2018-06-25T03:14:53.061Z,15.25
2018-06-25T03:17:22.422Z,15.25
2018-06-25T03:19:51.735Z,15.25
2018-06-25T03:22:20.671Z,15.23
2018-06-25T03:24:49.320Z,15.23
2018-06-25T03:27:18.337Z,15.22
2018-06-25T03:29:47.051Z,15.17
2018-06-25T03:32:15.561Z,15.12
2018-06-25T03:34:44.536Z,15.05
2018-06-25T03:37:13.781Z,14.96
2018-06-25T03:39:42.273Z,14.98
2018-06-25T03:42:11.036Z,15.03
2018-06-25T03:44:39.577Z,15.07
2018-06-25T03:47:08.358Z,15.06
2018-06-25T03:49:37.063Z,15.02
2018-06-25T03:52:05.718Z,15.01
2018-06-25T03:54:34.391Z,14.95
2018-06-25T03:57:03.062Z,14.88
2018-06-25T03:59:31.671Z,14.76
2018-06-25T04:02:00.574Z,14.70
2018-06-25T04:04:29.688Z,14.64
2018-06-25T04:06:58.299Z,14.61
2018-06-25T04:09:27.167Z,14.54
2018-06-25T04:11:55.712Z,14.48
2018-06-25T04:14:25.348Z,14.48
2018-06-25T04:16:53.988Z,14.51
2018-06-25T04:19:23.362Z,14.57
2018-06-25T04:21:52.011Z,14.70
2018-06-25T04:24:21.474Z,14.77
2018-06-25T04:26:50.111Z,14.82
2018-06-25T04:29:18.953Z,14.85
2018-06-25T04:31:47.672Z,14.93
2018-06-25T04:34:16.411Z,15.00
2018-06-25T04:36:45.789Z,15.03
2018-06-25T04:39:14.512Z,15.08
2018-06-25T04:41:43.207Z,15.14
2018-06-25T04:44:11.871Z,15.18
2018-06-25T04:46:40.759Z,15.26
2018-06-25T04:49:10.021Z,15.29
2018-06-25T04:51:38.952Z,15.31
2018-06-25T04:54:07.592Z,15.42
2018-06-25T04:56:36.256Z,15.43
2018-06-25T04:59:05.763Z,15.45
2018-06-25T05:01:34.462Z,15.47
2018-06-25T05:04:03.270Z,15.50
2018-06-25T05:06:31.957Z,15.47
2018-06-25T05:09:00.767Z,15.47
2018-06-25T05:11:29.556Z,15.53
2018-06-25T05:13:58.227Z,15.53
2018-06-25T05:16:27.162Z,15.59
2018-06-25T05:18:55.945Z,15.65
2018-06-25T05:21:25.127Z,15.74
2018-06-25T05:23:53.848Z,15.82
2018-06-25T05:26:22.642Z,15.94
2018-06-25T05:28:51.814Z,16.01
2018-06-25T05:31:20.782Z,15.91
2018-06-25T05:33:49.436Z,15.81
2018-06-25T05:36:18.352Z,15.74
2018-06-25T05:38:47.207Z,15.65
2018-06-25T05:41:16.007Z,15.56
2018-06-25T05:43:44.643Z,15.56
2018-06-25T05:46:13.328Z,15.56
2018-06-25T05:48:42.080Z,15.65
2018-06-25T05:51:10.991Z,15.73
2018-06-25T05:53:40.112Z,15.77
2018-06-25T05:56:08.841Z,15.78
2018-06-25T05:58:38.238Z,15.82
2018-06-25T06:01:07.819Z,15.81
2018-06-25T06:03:36.821Z,15.75
2018-06-25T06:06:06.021Z,15.79
2018-06-25T06:08:35.521Z,15.89
2018-06-25T06:11:04.437Z,15.92
2018-06-25T06:13:33.272Z,15.95
2018-06-25T06:16:01.944Z,16.02
2018-06-25T06:18:31.217Z,16.15
2018-06-25T06:21:00.262Z,16.28
2018-06-25T06:23:29.224Z,16.42
2018-06-25T06:25:57.825Z,16.64
2018-06-25T06:28:27.059Z,16.80
2018-06-25T06:30:56.344Z,17.03
2018-06-25T06:33:25.374Z,17.33
2018-06-25T06:35:54.220Z,17.55
2018-06-25T06:38:22.922Z,17.70
2018-06-25T06:40:52.297Z,17.78
2018-06-25T06:43:21.196Z,17.90
2018-06-25T06:45:49.968Z,18.12
2018-06-25T06:48:18.839Z,18.43
2018-06-25T06:50:47.519Z,18.52
2018-06-25T06:53:16.289Z,18.87
2018-06-25T06:55:45.533Z,19.30
2018-06-25T06:58:14.143Z,19.74
2018-06-25T07:00:43.436Z,20.67
2018-06-25T07:03:12.334Z,21.44
2018-06-25T07:05:40.917Z,21.82
2018-06-25T07:08:09.757Z,21.87
2018-06-25T07:10:39.107Z,21.80
2018-06-25T07:13:08.748Z,21.53
2018-06-25T07:15:37.399Z,21.60
2018-06-25T07:18:07.190Z,21.43
2018-06-25T07:20:35.833Z,21.18
2018-06-25T07:23:05.002Z,21.23
2018-06-25T07:25:34.363Z,21.20
2018-06-25T07:28:04.320Z,21.08
2018-06-25T07:30:32.999Z,20.98
2018-06-25T07:33:01.928Z,20.73
2018-06-25T07:35:30.615Z,20.72
2018-06-25T07:37:59.439Z,20.69
2018-06-25T07:40:28.067Z,20.70
2018-06-25T07:42:56.903Z,20.52
2018-06-25T07:45:25.705Z,20.67
2018-06-25T07:47:54.364Z,20.80
2018-06-25T07:50:23.854Z,20.93
2018-06-25T07:52:52.711Z,21.01
2018-06-25T07:55:21.557Z,20.96
2018-06-25T07:57:50.220Z,20.80
2018-06-25T08:00:19.825Z,20.88
2018-06-25T08:02:48.358Z,21.10
2018-06-25T08:05:17.214Z,21.15
2018-06-25T08:07:45.930Z,21.21
2018-06-25T08:10:14.737Z,21.31
2018-06-25T08:12:43.742Z,21.37
2018-06-25T08:15:12.528Z,21.40
2018-06-25T08:17:42.165Z,21.22
2018-06-25T08:20:10.885Z,20.96
2018-06-25T08:22:39.657Z,20.51
2018-06-25T08:25:08.519Z,20.46
2018-06-25T08:27:38.079Z,20.47
2018-06-25T08:30:06.931Z,20.32
2018-06-25T08:32:35.708Z,20.32
2018-06-25T08:35:05.733Z,20.27
2018-06-25T08:37:34.992Z,20.17
2018-06-25T08:40:03.744Z,20.16
2018-06-25T08:42:32.469Z,20.31
2018-06-25T08:45:01.076Z,20.54
2018-06-25T08:47:29.814Z,20.79
2018-06-25T08:49:59.570Z,20.96
2018-06-25T08:52:28.943Z,20.70
2018-06-25T08:54:57.604Z,20.50
2018-06-25T08:57:26.703Z,20.30
2018-06-25T08:59:55.399Z,20.15
2018-06-25T09:02:24.119Z,20.18
2018-06-25T09:04:52.989Z,20.26
2018-06-25T09:07:21.680Z,20.52
2018-06-25T09:09:50.946Z,20.98
2018-06-25T09:12:19.844Z,21.52
2018-06-25T09:14:48.454Z,22.11
2018-06-25T09:17:17.144Z,22.73
2018-06-25T09:19:45.807Z,23.77
2018-06-25T09:22:14.702Z,24.52
2018-06-25T09:24:43.461Z,24.94
2018-06-25T09:27:12.095Z,24.70
2018-06-25T09:29:40.704Z,24.63
2018-06-25T09:32:10.360Z,25.36
2018-06-25T09:34:44.218Z,25.79
2018-06-25T09:37:12.964Z,25.95
2018-06-25T09:39:41.795Z,25.01
2018-06-25T09:42:10.549Z,24.12
2018-06-25T09:44:39.182Z,23.49
2018-06-25T09:47:07.889Z,23.37
2018-06-25T09:49:36.589Z,24.07
2018-06-25T09:52:06.372Z,25.09
2018-06-25T09:54:35.020Z,25.52
2018-06-25T09:57:04.241Z,25.81
2018-06-25T09:59:33.653Z,26.02
2018-06-25T10:02:02.538Z,27.67
2018-06-25T10:04:32.039Z,29.13
2018-06-25T10:07:01.587Z,30.58
2018-06-25T10:09:30.311Z,29.89
2018-06-25T10:11:59.249Z,28.91
2018-06-25T10:14:27.821Z,28.09
2018-06-25T10:16:56.638Z,27.44
2018-06-25T10:19:25.227Z,27.36
2018-06-25T10:21:54.401Z,28.13
2018-06-25T10:24:23.151Z,30.14
2018-06-25T10:26:51.857Z,29.95
2018-06-25T10:29:21.080Z,31.44
2018-06-25T10:31:49.746Z,31.19
2018-06-25T10:34:18.516Z,30.65
2018-06-25T10:36:47.133Z,30.04
2018-06-25T10:39:16.049Z,31.58
2018-06-25T10:41:45.315Z,33.43
2018-06-25T10:44:14.337Z,34.01
2018-06-25T10:46:43.719Z,34.83
2018-06-25T10:49:12.534Z,34.73
2018-06-25T10:51:41.404Z,33.78
2018-06-25T10:54:10.784Z,32.30
2018-06-25T10:56:39.394Z,31.10
2018-06-25T10:59:08.179Z,30.70
2018-06-25T11:01:37.054Z,31.79
2018-06-25T11:04:06.155Z,33.81
2018-06-25T11:06:35.544Z,33.30
2018-06-25T11:09:06.655Z,31.39
2018-06-25T11:11:35.564Z,30.18
2018-06-25T11:14:05.078Z,29.08
2018-06-25T11:16:33.776Z,29.09
2018-06-25T11:19:02.554Z,30.38
2018-06-25T11:21:31.964Z,33.48
2018-06-25T11:24:00.766Z,35.29
2018-06-25T11:26:29.355Z,36.26
2018-06-25T11:28:58.271Z,36.69
2018-06-25T11:31:26.925Z,37.11
2018-06-25T11:33:56.056Z,38.42
2018-06-25T11:36:25.835Z,38.95
2018-06-25T11:38:54.466Z,37.66
2018-06-25T11:41:23.185Z,35.14
2018-06-25T11:43:51.970Z,34.40
2018-06-25T11:46:20.741Z,34.74
2018-06-25T11:48:49.495Z,36.52
2018-06-25T11:51:18.051Z,37.90
2018-06-25T11:53:46.854Z,37.74
2018-06-25T11:56:16.416Z,36.18
2018-06-25T11:58:45.256Z,33.77
2018-06-25T12:01:14.221Z,32.08
2018-06-25T12:03:43.010Z,30.89
2018-06-25T12:06:12.541Z,30.96
2018-06-25T12:08:41.279Z,32.27
2018-06-25T12:11:09.980Z,31.93
2018-06-25T12:13:38.836Z,30.39
2018-06-25T12:16:07.684Z,30.47
2018-06-25T12:18:37.336Z,30.09
2018-06-25T12:21:05.986Z,29.96
2018-06-25T12:23:34.776Z,30.02
2018-06-25T12:26:03.785Z,31.05
2018-06-25T12:28:33.550Z,32.13
2018-06-25T12:31:02.312Z,33.21
2018-06-25T12:33:31.058Z,33.33
2018-06-25T12:35:59.751Z,33.68
2018-06-25T12:38:29.214Z,33.98
2018-06-25T12:40:58.194Z,33.60
2018-06-25T12:43:27.526Z,33.21
2018-06-25T12:45:56.876Z,32.67
2018-06-25T12:48:25.789Z,32.25
2018-06-25T12:50:55.016Z,32.11
2018-06-25T12:53:24.703Z,31.14
2018-06-25T12:55:53.477Z,30.49
2018-06-25T12:58:22.310Z,30.03
2018-06-25T13:00:51.080Z,29.79
2018-06-25T13:03:19.772Z,29.27
2018-06-25T13:05:48.377Z,28.88
2018-06-25T13:08:17.290Z,28.71
2018-06-25T13:10:46.767Z,28.90
2018-06-25T13:13:16.266Z,29.22
2018-06-25T13:15:45.284Z,29.89
2018-06-25T13:18:14.132Z,29.81
2018-06-25T13:20:42.800Z,29.18
2018-06-25T13:23:11.961Z,28.20
2018-06-25T13:25:40.804Z,27.48
2018-06-25T13:28:09.505Z,27.23
2018-06-25T13:30:38.324Z,27.18
2018-06-25T13:33:07.831Z,27.30
2018-06-25T13:35:36.934Z,27.30
2018-06-25T13:38:06.401Z,27.57
2018-06-25T13:40:35.215Z,27.96
2018-06-25T13:43:03.920Z,28.04
2018-06-25T13:45:32.814Z,27.62
2018-06-25T13:48:01.383Z,27.55
2018-06-25T13:50:30.125Z,27.58
2018-06-25T13:52:58.984Z,27.27
2018-06-25T13:55:28.544Z,26.98
2018-06-25T13:57:57.816Z,27.08
2018-06-25T14:00:26.986Z,26.92
2018-06-25T14:02:55.820Z,27.14
2018-06-25T14:05:24.810Z,27.29
2018-06-25T14:07:54.163Z,27.09
2018-06-25T14:10:22.896Z,26.90
2018-06-25T14:12:51.493Z,26.72
2018-06-25T14:15:20.992Z,26.53
2018-06-25T14:17:50.404Z,26.54
2018-06-25T14:20:19.353Z,26.55
2018-06-25T14:22:48.789Z,26.42
2018-06-25T14:25:17.450Z,26.43
2018-06-25T14:27:51.420Z,26.28
2018-06-25T14:30:25.561Z,26.27
2018-06-25T14:33:09.752Z,26.21
2018-06-25T14:35:38.767Z,26.01
2018-06-25T14:38:08.099Z,25.83
2018-06-25T14:40:37.726Z,25.73
2018-06-25T14:43:06.443Z,25.11
2018-06-25T14:45:35.692Z,24.86
2018-06-25T14:48:06.154Z,24.85
2018-06-25T14:50:35.217Z,24.81
2018-06-25T14:53:04.285Z,24.60
2018-06-25T14:55:32.991Z,24.46
2018-06-25T14:58:01.641Z,24.34
2018-06-25T15:00:30.303Z,24.39
2018-06-25T15:02:59.036Z,24.67
2018-06-25T15:05:28.648Z,24.90
2018-06-25T15:07:57.475Z,25.09
2018-06-25T15:10:26.181Z,25.15
2018-06-25T15:12:54.967Z,25.06
2018-06-25T15:15:24.728Z,25.03
2018-06-25T15:17:53.477Z,24.88
2018-06-25T15:20:22.201Z,24.80
2018-06-25T15:22:51.786Z,24.66
2018-06-25T15:25:20.461Z,24.69
2018-06-25T15:27:49.397Z,24.64
2018-06-25T15:30:27.811Z,24.72
2018-06-25T15:32:56.588Z,24.69
2018-06-25T15:35:25.390Z,24.72
2018-06-25T15:37:54.510Z,24.67
2018-06-25T15:40:23.543Z,24.51
2018-06-25T15:42:52.212Z,24.42
2018-06-25T15:45:21.036Z,24.27
2018-06-25T15:47:49.790Z,24.26
2018-06-25T15:50:18.449Z,24.18
2018-06-25T15:52:47.074Z,24.29
2018-06-25T15:55:15.822Z,24.40
2018-06-25T15:57:44.605Z,24.32
2018-06-25T16:00:13.716Z,24.22
2018-06-25T16:02:43.222Z,24.26
2018-06-25T16:05:12.434Z,24.20
2018-06-25T16:07:41.221Z,24.20
2018-06-25T16:10:10.015Z,24.19
2018-06-25T16:12:38.640Z,24.19
2018-06-25T16:15:07.537Z,24.15
2018-06-25T16:17:36.907Z,23.83
2018-06-25T16:20:05.729Z,23.75
2018-06-25T16:22:34.360Z,23.67
2018-06-25T16:25:03.580Z,23.47
2018-06-25T16:27:32.297Z,23.31
2018-06-25T16:30:01.036Z,23.15
2018-06-25T16:32:30.471Z,23.02
2018-06-25T16:34:59.532Z,22.78
2018-06-25T16:37:29.148Z,22.66
2018-06-25T16:39:58.113Z,22.56
2018-06-25T16:42:26.848Z,22.35
2018-06-25T16:44:55.688Z,22.19
2018-06-25T16:47:24.709Z,22.11
2018-06-25T16:49:53.421Z,22.14
2018-06-25T16:52:22.353Z,22.21
2018-06-25T16:54:51.138Z,22.26
2018-06-25T16:57:19.807Z,22.34
2018-06-25T16:59:48.631Z,22.44
2018-06-25T17:02:17.423Z,22.38
2018-06-25T17:04:45.957Z,22.35
2018-06-25T17:07:14.746Z,22.39
2018-06-25T17:09:43.446Z,22.48
2018-06-25T17:12:12.506Z,22.53
2018-06-25T17:14:41.218Z,22.53
2018-06-25T17:17:09.915Z,22.46
2018-06-25T17:19:38.660Z,22.41
2018-06-25T17:22:07.630Z,22.33
2018-06-25T17:24:36.361Z,22.30
2018-06-25T17:27:05.401Z,22.30
2018-06-25T17:29:34.311Z,22.32
2018-06-25T17:32:04.058Z,22.38
2018-06-25T17:34:32.688Z,22.38
2018-06-25T17:37:01.607Z,22.33
2018-06-25T17:39:30.361Z,22.28
2018-06-25T17:41:59.892Z,22.21
2018-06-25T17:44:28.652Z,22.07
2018-06-25T17:46:57.553Z,21.91
2018-06-25T17:49:26.311Z,21.72
2018-06-25T17:51:55.168Z,21.53
2018-06-25T17:54:24.581Z,21.41
2018-06-25T17:56:53.213Z,21.30
2018-06-25T17:59:22.028Z,21.24
2018-06-25T18:01:50.662Z,21.22
2018-06-25T18:04:19.244Z,21.24
2018-06-25T18:06:48.298Z,21.23
2018-06-25T18:09:17.054Z,21.24
2018-06-25T18:11:45.898Z,21.26
2018-06-25T18:14:14.740Z,21.30
2018-06-25T18:16:43.394Z,21.32
2018-06-25T18:19:12.142Z,21.36
2018-06-25T18:21:40.848Z,21.33
2018-06-25T18:24:09.668Z,21.31
2018-06-25T18:26:38.548Z,21.30
2018-06-25T18:29:07.435Z,21.25
2018-06-25T18:31:36.482Z,21.21
2018-06-25T18:34:05.091Z,21.20
2018-06-25T18:36:33.872Z,21.18
2018-06-25T18:39:03.407Z,21.12
2018-06-25T18:41:32.208Z,21.05
2018-06-25T18:44:01.529Z,20.95
2018-06-25T18:46:30.276Z,20.86
2018-06-25T18:48:59.161Z,20.76
2018-06-25T18:51:27.928Z,20.72
2018-06-25T18:53:56.851Z,20.65
2018-06-25T18:56:25.602Z,20.59
2018-06-25T18:58:54.514Z,20.51
2018-06-25T19:01:23.302Z,20.42
2018-06-25T19:03:52.153Z,20.30
2018-06-25T19:06:20.849Z,20.10
2018-06-25T19:08:49.573Z,19.90
2018-06-25T19:11:18.387Z,19.69
2018-06-25T19:13:47.132Z,19.50
2018-06-25T19:16:15.883Z,19.34
2018-06-25T19:18:44.983Z,19.09
2018-06-25T19:21:13.957Z,18.92
2018-06-25T19:23:43.382Z,18.82
2018-06-25T19:26:12.048Z,18.63
2018-06-25T19:28:40.871Z,18.43
2018-06-25T19:31:10.024Z,18.32
2018-06-25T19:33:39.019Z,18.21
2018-06-25T19:36:07.771Z,18.07
2018-06-25T19:38:36.635Z,17.92
2018-06-25T19:41:05.422Z,17.79
2018-06-25T19:43:34.162Z,17.67
2018-06-25T19:46:03.256Z,17.50
2018-06-25T19:48:31.902Z,17.39
2018-06-25T19:51:00.753Z,17.17
2018-06-25T19:53:29.756Z,17.06
2018-06-25T19:55:58.428Z,16.98
2018-06-25T19:58:27.336Z,16.86
2018-06-25T20:00:56.188Z,16.76
2018-06-25T20:03:24.934Z,16.64
2018-06-25T20:05:53.794Z,16.58
2018-06-25T20:08:22.423Z,16.45
2018-06-25T20:10:51.403Z,16.43
2018-06-25T20:13:20.181Z,16.30
2018-06-25T20:15:49.204Z,16.19
2018-06-25T20:18:17.867Z,16.13
2018-06-25T20:20:46.828Z,16.03
2018-06-25T20:23:15.962Z,15.90
2018-06-25T20:25:44.679Z,15.84
2018-06-25T20:28:13.405Z,15.68
2018-06-25T20:30:42.423Z,15.63
2018-06-25T20:33:11.165Z,15.55
2018-06-25T20:35:39.752Z,15.46
2018-06-25T20:38:10.293Z,15.42
2018-06-25T20:40:39.270Z,15.40
2018-06-25T20:43:08.693Z,15.33
2018-06-25T20:45:37.971Z,15.21
2018-06-25T20:48:07.065Z,15.10
2018-06-25T20:50:35.748Z,15.00
2018-06-25T20:53:04.543Z,14.85
2018-06-25T20:55:33.146Z,14.81
2018-06-25T20:58:01.802Z,14.71
2018-06-25T21:00:30.918Z,14.65
2018-06-25T21:02:59.960Z,14.58
2018-06-25T21:05:28.728Z,14.53
2018-06-25T21:07:57.708Z,14.52
2018-06-25T21:10:26.649Z,14.43
2018-06-25T21:12:55.353Z,14.36
2018-06-25T21:15:24.677Z,14.33
2018-06-25T21:17:53.457Z,14.25
2018-06-25T21:20:22.292Z,14.23
2018-06-25T21:22:51.356Z,14.20
2018-06-25T21:25:20.514Z,14.10
2018-06-25T21:27:49.897Z,14.08
2018-06-25T21:30:19.117Z,14.00
2018-06-25T21:32:48.237Z,13.92
2018-06-25T21:35:17.322Z,13.88
2018-06-25T21:37:46.712Z,13.84
2018-06-25T21:40:16.031Z,13.77
2018-06-25T21:42:45.103Z,13.73
2018-06-25T21:45:14.011Z,13.69
2018-06-25T21:47:42.774Z,13.66
2018-06-25T21:50:11.734Z,13.62
2018-06-25T21:52:41.108Z,13.50
2018-06-25T21:55:09.943Z,13.37
2018-06-25T21:57:38.709Z,13.37
2018-06-25T22:00:11.139Z,13.36
2018-06-25T22:02:39.998Z,13.32
2018-06-25T22:05:09.100Z,13.33
2018-06-25T22:07:38.366Z,13.28
2018-06-25T22:10:08.535Z,13.27
2018-06-25T22:12:37.857Z,13.20
2018-06-25T22:15:07.595Z,13.12
2018-06-25T22:17:38.499Z,13.09
2018-06-25T22:20:07.352Z,13.04
2018-06-25T22:22:36.531Z,12.97
2018-06-25T22:25:05.787Z,12.96
2018-06-25T22:27:35.067Z,12.96
2018-06-25T22:30:04.497Z,12.91
2018-06-25T22:32:33.473Z,12.83
2018-06-25T22:35:03.707Z,12.74
2018-06-25T22:37:34.117Z,12.67
2018-06-25T22:40:03.062Z,12.65
2018-06-25T22:42:33.548Z,12.57
2018-06-25T22:45:02.977Z,12.49
2018-06-25T22:47:31.658Z,12.41
2018-06-25T22:50:00.820Z,12.33
2018-06-25T22:52:30.203Z,12.32
2018-06-25T22:54:59.274Z,12.30
2018-06-25T22:57:28.124Z,12.27
2018-06-25T22:59:56.817Z,12.29
2018-06-25T23:02:25.414Z,12.25
2018-06-25T23:04:54.173Z,12.25
2018-06-25T23:07:22.844Z,12.14
2018-06-25T23:13:21.829Z,12.07
2018-06-25T23:15:50.798Z,12.12
2018-06-25T23:18:19.529Z,12.11
2018-06-25T23:20:49.058Z,12.11
2018-06-25T23:23:18.409Z,12.07
2018-06-25T23:25:47.263Z,12.00
2018-06-25T23:28:15.925Z,11.89
2018-06-25T23:30:44.728Z,11.85
2018-06-25T23:33:13.456Z,11.80
2018-06-25T23:35:42.149Z,11.71
2018-06-25T23:38:11.698Z,11.66
2018-06-25T23:40:41.018Z,11.62
2018-06-25T23:43:10.307Z,11.61
2018-06-25T23:45:38.999Z,11.55
2018-06-25T23:48:07.619Z,11.58
2018-06-25T23:50:36.214Z,11.56
2018-06-25T23:53:05.165Z,11.51
2018-06-25T23:55:34.412Z,11.45
2018-06-25T23:58:03.284Z,11.44
